Terminal Aerodrome Forecast
Issued by NWS Springfield, MO

Home | Current Version | Previous Version | Text Only | Print | Product List | Glossary On
Versions: 1 2 3 4 5 6 7 8 9 10 11 12 13 14 15 16 17 18 19 20 21 22 23
000
FTUS43 KSGF 062300
TAFSGF
TAF
KSGF 062335Z 0700/0724 18012G18KT P6SM SCT035 BKN050
     FM070300 20010KT 5SM -TSRA BR SCT020 OVC035CB WS020/23040KT
      TEMPO 0703/0706 VRB35KT 3SM TSRA SCT015 OVC025CB
     FM071200 27009KT 4SM -RA BR BKN007 OVC025
     FM071500 30008KT 5SM -SHRA SCT007 OVC025=

USA.gov is the U.S. government's official web portal to all federal, state and local government web resources and services.